Time;durP1;ratioP1;P1;durP2;ratioP2;P2;SDS_P1;SDS_P2;PMS_P1;PMS_P2;Temp;Humidity;BMP_temperature;BMP_pressure;BME280_temperature;BME280_humidity;BME280_pressure;Samples;Min_cycle;Max_cycle;Signal;HPM_P1;HPM_P2
2023/07/03 00:00:01;;;;;;;;;2.25;0.75;;;;;-146.67;34.71;74410.06;5101696;27;62348;-80
2023/07/03 00:02:26;;;;;;;;;2.50;2.25;;;;;-146.67;35.11;74418.06;5109307;27;62879;-80
2023/07/03 00:04:52;;;;;;;;;4.00;3.25;;;;;-146.67;35.29;74416.06;5125690;27;61942;-80
2023/07/03 00:07:17;;;;;;;;;3.00;2.00;;;;;-146.67;35.34;74414.06;5125885;27;61744;-80
2023/07/03 00:09:43;;;;;;;;;6.75;1.50;;;;;-146.67;36.05;74420.06;5120826;27;61759;-80
2023/07/03 00:12:10;;;;;;;;;3.00;2.00;;;;;-146.67;36.20;74428.03;5104513;27;62859;-80
2023/07/03 00:14:36;;;;;;;;;2.25;1.25;;;;;-146.67;35.91;74414.06;5105040;27;62031;-80
2023/07/03 00:17:01;;;;;;;;;1.50;1.50;;;;;-146.67;35.89;74430.03;5103839;27;62103;-80
2023/07/03 00:19:30;;;;;;;;;3.75;3.75;;;;;-146.67;36.92;74457.97;5105575;27;62018;-80
2023/07/03 00:21:59;;;;;;;;;2.00;2.00;;;;;-146.67;36.51;74456.00;5103556;27;64044;-80
2023/07/03 00:24:24;;;;;;;;;2.00;2.00;;;;;-146.67;36.40;74442.00;5104006;27;61854;-79
2023/07/03 00:26:49;;;;;;;;;5.75;3.25;;;;;-146.67;36.60;74446.00;5105928;27;62301;-80
2023/07/03 00:29:15;;;;;;;;;1.25;1.25;;;;;-146.67;36.94;74452.00;5104384;27;61829;-80
2023/07/03 00:31:40;;;;;;;;;3.75;2.00;;;;;-146.67;36.79;74436.03;5104902;27;62153;-80
2023/07/03 00:34:05;;;;;;;;;3.25;2.50;;;;;-146.67;36.52;74432.03;5105080;27;61839;-80
2023/07/03 00:36:31;;;;;;;;;3.75;1.75;;;;;-146.67;36.47;74396.09;5105350;27;61844;-80
2023/07/03 00:38:58;;;;;;;;;4.50;1.75;;;;;-146.67;36.42;74392.09;5105550;27;61976;-80
2023/07/03 00:41:24;;;;;;;;;2.00;2.00;;;;;-146.67;36.29;74378.13;5104944;27;62869;-80
2023/07/03 00:43:50;;;;;;;;;4.00;2.75;;;;;-146.67;36.24;74382.13;5104999;27;61784;-80
2023/07/03 00:46:15;;;;;;;;;3.00;2.00;;;;;-146.67;36.31;74380.13;5105524;27;61822;-80
2023/07/03 00:48:41;;;;;;;;;2.75;2.75;;;;;-146.67;37.16;74434.03;5102998;27;61874;-80
2023/07/03 00:51:10;;;;;;;;;0.75;0.75;;;;;-146.67;36.39;74392.09;5103306;27;64609;-80
2023/07/03 00:53:36;;;;;;;;;4.75;2.00;;;;;-146.67;36.36;74372.13;5104714;27;61839;-80
2023/07/03 00:56:03;;;;;;;;;3.25;1.75;;;;;-146.67;36.59;74378.13;5104993;27;61710;-80
2023/07/03 00:58:28;;;;;;;;;3.75;3.00;;;;;-146.67;36.38;74376.13;5105163;27;62030;-80
2023/07/03 01:01:20;;;;;;;;;2.25;2.25;;;;;-146.67;36.72;74400.09;5104504;27;63134;-79
2023/07/03 01:03:53;;;;;;;;;3.25;2.00;;;;;-146.67;36.94;74406.06;5120359;27;62206;-79
2023/07/03 01:06:23;;;;;;;;;6.75;1.75;;;;;-146.67;36.77;74394.09;5105229;27;61913;-80
2023/07/03 01:08:54;;;;;;;;;3.00;2.50;;;;;-146.67;36.85;74384.13;5104829;27;61802;-79
2023/07/03 01:11:22;;;;;;;;;3.00;1.50;;;;;-146.67;36.82;74378.13;5093647;27;63926;-79
2023/07/03 01:13:50;;;;;;;;;2.00;2.00;;;;;-146.67;36.70;74370.16;5101994;27;61898;-79
2023/07/03 01:16:17;;;;;;;;;3.75;3.75;;;;;-146.67;36.65;74368.16;5103193;27;61895;-79
2023/07/03 01:18:46;;;;;;;;;9.75;4.00;;;;;-146.67;36.80;74362.16;5104501;27;61797;-79
2023/07/03 01:21:39;;;;;;;;;3.50;2.50;;;;;-146.67;36.28;74354.16;5104227;27;62083;-79
2023/07/03 01:24:12;;;;;;;;;3.00;3.00;;;;;-146.67;36.39;74352.19;5080962;28;61932;-79
2023/07/03 01:26:41;;;;;;;;;6.25;3.75;;;;;-146.67;36.35;74352.19;5081541;28;61910;-79
2023/07/03 01:29:09;;;;;;;;;6.25;3.25;;;;;-146.67;36.56;74360.16;5081549;28;62054;-80
2023/07/03 01:31:36;;;;;;;;;4.25;2.25;;;;;-146.67;36.51;74360.16;5080723;28;61882;-80
2023/07/03 01:34:03;;;;;;;;;2.50;2.25;;;;;-146.67;36.58;74378.13;5081441;28;62107;-80
2023/07/03 01:36:31;;;;;;;;;2.50;2.50;;;;;-146.67;36.86;74386.13;5081197;28;62032;-80
2023/07/03 01:38:58;;;;;;;;;4.50;3.00;;;;;-146.67;37.16;74398.09;5081577;28;61998;-80
2023/07/03 01:41:24;;;;;;;;;5.25;2.00;;;;;-146.67;37.13;74414.06;5080769;28;63899;-80
2023/07/03 01:43:50;;;;;;;;;3.75;2.75;;;;;-146.67;37.17;74412.06;5080921;28;62033;-80
2023/07/03 01:46:16;;;;;;;;;4.00;4.00;;;;;-146.67;37.20;74408.06;5063951;28;62013;-80
2023/07/03 01:48:42;;;;;;;;;4.00;3.00;;;;;-146.67;37.11;74400.09;5063890;28;61825;-79
2023/07/03 01:51:11;;;;;;;;;6.50;3.00;;;;;-146.67;37.03;74396.09;5063578;28;63639;-79
2023/07/03 01:54:11;;;;;;;;;4.75;3.00;;;;;-146.67;36.88;74390.09;5064149;28;62204;-80
2023/07/03 01:56:41;;;;;;;;;3.25;2.00;;;;;-146.67;36.72;74376.13;5077777;27;61898;-80
2023/07/03 01:59:17;;;;;;;;;5.00;4.00;;;;;-146.67;36.88;74394.09;5080550;28;61913;-80
2023/07/03 02:01:57;;;;;;;;;5.00;2.50;;;;;-146.67;36.79;74392.09;5098116;27;61964;-80
2023/07/03 02:04:27;;;;;;;;;5.00;3.25;;;;;-146.67;36.88;74388.09;5104033;27;61885;-80
2023/07/03 02:06:55;;;;;;;;;5.00;3.00;;;;;-146.67;37.50;74410.06;5102421;27;61879;-80
2023/07/03 02:09:21;;;;;;;;;5.00;2.75;;;;;-146.67;37.55;74424.03;5104197;27;62098;-80
2023/07/03 02:11:48;;;;;;;;;5.25;2.50;;;;;-146.67;37.21;74416.06;5103107;27;61860;-80
2023/07/03 02:14:14;;;;;;;;;4.75;2.00;;;;;-146.67;37.37;74422.03;5103387;27;62238;-80
2023/07/03 02:16:41;;;;;;;;;2.75;2.75;;;;;-146.67;37.85;74446.00;5104107;27;61789;-80
2023/07/03 02:19:07;;;;;;;;;4.00;3.00;;;;;-146.67;37.69;74432.03;5103245;27;61731;-80
2023/07/03 02:21:35;;;;;;;;;5.50;3.00;;;;;-146.67;37.52;74422.03;5103065;27;63148;-80
2023/07/03 02:24:01;;;;;;;;;3.00;3.00;;;;;-146.67;37.67;74432.03;5102118;27;61843;-80
2023/07/03 02:26:32;;;;;;;;;3.75;3.25;;;;;-146.67;37.75;74428.03;5103752;27;62067;-80
2023/07/03 02:28:57;;;;;;;;;2.75;2.25;;;;;-146.67;37.72;74424.03;5103445;27;61911;-80
2023/07/03 02:31:22;;;;;;;;;7.50;3.25;;;;;-146.67;37.74;74410.06;5103129;27;62837;-80
2023/07/03 02:33:48;;;;;;;;;7.25;4.50;;;;;-146.67;37.61;74410.06;5102273;27;62021;-80
2023/07/03 02:36:14;;;;;;;;;3.50;3.00;;;;;-146.67;37.75;74418.06;5103605;27;61785;-80
2023/07/03 02:38:39;;;;;;;;;4.50;3.00;;;;;-146.67;37.82;74424.03;5102343;27;62123;-80
2023/07/03 02:41:04;;;;;;;;;4.75;4.00;;;;;-146.67;37.86;74418.06;5101377;27;63994;-80
2023/07/03 02:43:33;;;;;;;;;6.00;3.75;;;;;-146.67;37.97;74418.06;5103331;27;61786;-80
2023/07/03 02:46:06;;;;;;;;;2.50;2.25;;;;;-146.67;38.06;74430.03;5101980;27;61783;-80
2023/07/03 02:48:31;;;;;;;;;5.25;3.00;;;;;-146.67;38.17;74430.03;5102950;27;62138;-80
2023/07/03 02:50:57;;;;;;;;;4.00;4.00;;;;;-146.67;38.34;74424.03;5101363;27;63759;-79
2023/07/03 02:53:22;;;;;;;;;4.25;3.75;;;;;-146.67;38.17;74428.03;5102871;27;61809;-80
2023/07/03 02:55:54;;;;;;;;;8.75;6.25;;;;;-146.67;38.33;74454.00;5119239;27;61945;-80
2023/07/03 02:58:19;;;;;;;;;4.00;1.75;;;;;-146.67;38.81;74467.97;5102889;27;61906;-80
2023/07/03 03:00:46;;;;;;;;;4.00;3.50;;;;;-146.67;38.77;74469.97;5102479;27;62028;-80
2023/07/03 03:03:13;;;;;;;;;6.25;5.00;;;;;-146.67;38.85;74465.97;5103099;27;61785;-82
2023/07/03 03:05:39;;;;;;;;;5.50;4.25;;;;;-146.67;38.54;74461.97;5103115;27;61841;-82
2023/07/03 03:08:04;;;;;;;;;3.25;3.00;;;;;-146.67;38.59;74442.00;5102003;27;62046;-82
2023/07/03 03:10:30;;;;;;;;;4.25;3.50;;;;;-146.67;38.54;74434.03;5092550;27;61992;-82
2023/07/03 03:12:55;;;;;;;;;4.00;4.00;;;;;-146.67;38.12;74436.03;5118506;27;61737;-83
2023/07/03 03:15:21;;;;;;;;;8.00;4.50;;;;;-146.67;38.56;74442.00;5101348;27;61842;-82
2023/07/03 03:17:46;;;;;;;;;7.75;4.50;;;;;-146.67;38.54;74432.03;5100180;27;61778;-82
2023/07/03 03:20:16;;;;;;;;;5.50;3.50;;;;;-146.67;38.07;74422.03;5100967;27;63666;-82
2023/07/03 03:22:41;;;;;;;;;6.25;5.00;;;;;-146.67;38.35;74422.03;5101423;27;61906;-83
2023/07/03 03:25:07;;;;;;;;;6.00;5.25;;;;;-146.67;38.37;74416.06;5101466;27;62108;-83
2023/07/03 03:27:32;;;;;;;;;3.75;3.75;;;;;-146.67;38.24;74422.03;5102458;27;61840;-82
2023/07/03 03:29:58;;;;;;;;;5.00;5.00;;;;;-146.67;38.20;74420.06;5100756;27;63901;-82
2023/07/03 03:32:24;;;;;;;;;8.00;4.00;;;;;-146.67;38.61;74424.03;5102669;27;61916;-82
2023/07/03 03:34:50;;;;;;;;;8.00;6.00;;;;;-146.67;38.45;74436.03;5102940;27;61912;-82
2023/07/03 03:37:16;;;;;;;;;6.00;4.25;;;;;-146.67;38.54;74456.00;5104266;27;61713;-82
2023/07/03 03:39:42;;;;;;;;;8.50;4.75;;;;;-146.67;38.62;74454.00;5105542;27;63053;-83
2023/07/03 03:42:09;;;;;;;;;6.00;5.00;;;;;-146.67;38.71;74444.00;5105959;27;61731;-83
2023/07/03 03:44:35;;;;;;;;;5.75;4.50;;;;;-146.67;38.56;74444.00;5106271;27;61983;-83
2023/07/03 03:47:00;;;;;;;;;9.00;4.25;;;;;-146.67;38.99;74459.97;5104630;27;62165;-83
2023/07/03 03:49:26;;;;;;;;;6.25;4.00;;;;;-146.67;39.18;74465.97;5105858;27;62034;-82
2023/07/03 03:51:51;;;;;;;;;6.25;6.25;;;;;-146.67;39.29;74483.94;5104655;27;61935;-82
2023/07/03 03:54:16;;;;;;;;;8.75;4.75;;;;;-146.67;39.07;74469.97;5104561;27;61815;-82
2023/07/03 03:56:42;;;;;;;;;8.75;6.25;;;;;-146.67;39.28;74483.94;5105964;27;61752;-80
2023/07/03 03:59:07;;;;;;;;;5.25;4.25;;;;;-146.67;39.78;74495.91;5105270;27;61808;-79
2023/07/03 04:01:34;;;;;;;;;7.50;5.25;;;;;-146.67;39.43;74487.94;5106081;27;61819;-79
2023/07/03 04:03:59;;;;;;;;;6.75;5.50;;;;;-146.67;39.61;74481.94;5106201;27;61689;-80
2023/07/03 04:06:26;;;;;;;;;6.75;5.25;;;;;-146.67;40.58;74559.81;5106199;27;61993;-80
2023/07/03 04:08:58;;;;;;;;;5.00;5.00;;;;;-146.67;39.73;74495.91;5103946;27;65234;-79
2023/07/03 04:11:28;;;;;;;;;6.75;5.25;;;;;-146.67;40.12;74545.81;5105500;27;61695;-80
2023/07/03 04:13:54;;;;;;;;;5.00;5.00;;;;;-146.67;40.31;74559.81;5105651;27;62687;-80
2023/07/03 04:16:20;;;;;;;;;7.50;7.00;;;;;-146.67;40.59;74545.81;5105969;27;61772;-80
2023/07/03 04:18:45;;;;;;;;;7.75;4.25;;;;;-146.67;40.47;74541.84;5104661;27;63301;-80
2023/07/03 04:21:11;;;;;;;;;7.25;5.00;;;;;-146.67;40.84;74543.84;5104341;27;61881;-80
2023/07/03 04:23:36;;;;;;;;;8.00;6.00;;;;;-146.67;40.48;74537.84;5105709;27;61793;-80
2023/07/03 04:26:02;;;;;;;;;6.50;4.50;;;;;-146.67;40.84;74541.84;5105812;27;61789;-80
2023/07/03 04:28:28;;;;;;;;;8.50;6.00;;;;;-146.67;40.56;74535.84;5103891;27;63791;-80
2023/07/03 04:30:53;;;;;;;;;6.75;4.50;;;;;-146.67;40.56;74529.84;5103853;27;61758;-80
2023/07/03 04:33:18;;;;;;;;;8.25;5.50;;;;;-146.67;40.51;74519.88;5104519;27;62294;-80
2023/07/03 04:35:45;;;;;;;;;9.25;6.75;;;;;-146.67;40.56;74515.88;5105756;27;61761;-80
2023/07/03 04:38:10;;;;;;;;;5.50;5.25;;;;;-146.67;40.59;74517.88;5105275;27;62907;-80
2023/07/03 04:40:36;;;;;;;;;5.00;5.00;;;;;-146.67;40.69;74519.88;5103774;27;62013;-79
2023/07/03 04:43:02;;;;;;;;;4.00;4.00;;;;;-146.67;40.75;74533.84;5104124;27;61833;-80
2023/07/03 04:45:31;;;;;;;;;6.50;4.75;;;;;-146.67;40.56;74515.88;5104092;27;61937;-80
2023/07/03 04:47:56;;;;;;;;;5.00;3.75;;;;;-146.67;39.46;74404.09;5102562;27;65195;-80
2023/07/03 04:50:24;;;;;;;;;4.50;4.50;;;;;-146.67;39.14;74380.13;5103832;27;61897;-80
2023/07/03 04:52:51;;;;;;;;;6.00;4.00;;;;;-146.67;38.88;74384.13;5105272;27;61714;-80
2023/07/03 04:55:17;;;;;;;;;7.75;3.75;;;;;-146.67;38.89;74384.13;5104990;27;61713;-81
2023/07/03 04:57:43;;;;;;;;;6.50;5.50;;;;;-146.67;38.95;74382.13;5104176;27;61922;-81
2023/07/03 05:00:18;;;;;;;;;6.00;4.00;;;;;-146.67;39.18;74376.13;5104777;27;61850;-81
2023/07/03 05:02:51;;;;;;;;;7.00;5.50;;;;;-146.67;38.96;74366.16;5105403;27;61935;-82
2023/07/03 05:05:19;;;;;;;;;4.25;4.25;;;;;-146.67;38.62;74358.16;5103513;27;61813;-80
2023/07/03 05:07:45;;;;;;;;;6.00;4.00;;;;;-146.67;38.88;74364.16;5104141;27;62954;-85
2023/07/03 05:10:14;;;;;;;;;6.00;6.00;;;;;-146.67;39.36;74432.03;5104632;27;61833;-80
2023/07/03 05:12:39;;;;;;;;;4.00;3.50;;;;;-146.67;39.82;74434.03;5105127;27;61756;-80
2023/07/03 05:15:09;;;;;;;;;4.50;3.25;;;;;-146.67;39.61;74404.09;5104837;27;61819;-79
2023/07/03 05:17:38;;;;;;;;;7.00;4.25;;;;;-146.67;39.57;74408.06;5102215;27;63650;-79
2023/07/03 05:20:06;;;;;;;;;7.75;4.50;;;;;-146.67;39.73;74400.09;5103274;27;62563;-80
2023/07/03 05:22:32;;;;;;;;;4.75;3.75;;;;;-146.67;40.07;74444.00;5104425;27;62059;-80
2023/07/03 05:24:59;;;;;;;;;8.00;3.25;;;;;-146.67;40.12;74442.00;5103625;27;62169;-83
2023/07/03 05:27:25;;;;;;;;;7.00;4.00;;;;;-146.67;40.33;74446.00;5104257;27;62076;-84
2023/07/03 05:29:51;;;;;;;;;5.00;4.00;;;;;-146.67;40.18;74436.03;5104630;27;61789;-83
2023/07/03 05:32:16;;;;;;;;;4.00;4.00;;;;;-146.67;40.12;74438.03;5104401;27;62541;-83
2023/07/03 05:34:41;;;;;;;;;5.75;5.00;;;;;-146.67;40.40;74434.03;5104604;27;62108;-82
2023/07/03 05:37:07;;;;;;;;;4.50;4.00;;;;;-146.67;40.14;74426.03;5103586;27;61958;-83
2023/07/03 05:39:32;;;;;;;;;6.50;5.75;;;;;-146.67;40.11;74408.06;5106301;27;61859;-83
2023/07/03 05:41:58;;;;;;;;;4.00;2.00;;;;;-146.67;40.09;74396.09;5103113;27;62013;-81
2023/07/03 05:44:23;;;;;;;;;5.00;3.50;;;;;-146.67;39.83;74400.09;5102977;27;61852;-81
2023/07/03 05:46:50;;;;;;;;;4.25;3.25;;;;;-146.67;39.94;74388.09;5103940;27;61735;-81
2023/07/03 05:49:15;;;;;;;;;6.50;4.50;;;;;-146.67;38.62;74296.28;5103653;27;61827;-80
2023/07/03 05:51:40;;;;;;;;;2.00;2.00;;;;;-146.67;39.58;74368.16;5103883;27;62227;-80
2023/07/03 05:54:06;;;;;;;;;6.50;5.00;;;;;-146.67;39.77;74370.16;5103895;27;62089;-80
2023/07/03 05:56:32;;;;;;;;;5.75;4.00;;;;;-146.67;39.59;74364.16;5103704;27;62716;-80
2023/07/03 05:58:57;;;;;;;;;3.75;3.75;;;;;-146.67;39.31;74346.19;5102921;27;62032;-80
2023/07/03 06:01:23;;;;;;;;;3.25;3.00;;;;;-146.67;38.93;74346.19;5101799;27;62356;-78
2023/07/03 06:03:48;;;;;;;;;3.75;2.50;;;;;-146.67;38.63;74342.19;5102982;27;62420;-81
2023/07/03 06:06:15;;;;;;;;;5.50;4.25;;;;;-146.67;38.57;74342.19;5118729;27;63763;-78
2023/07/03 06:08:41;;;;;;;;;5.25;4.00;;;;;-146.67;38.62;74338.19;5103879;27;61816;-77
2023/07/03 06:11:06;;;;;;;;;7.00;4.00;;;;;-146.67;38.09;74330.22;5097518;27;61919;-80
2023/07/03 06:13:32;;;;;;;;;6.50;4.25;;;;;-146.67;38.04;74336.19;5101870;27;62501;-77
2023/07/03 06:15:57;;;;;;;;;6.25;4.00;;;;;-146.67;37.65;74332.22;5102770;27;61949;-81
2023/07/03 06:18:23;;;;;;;;;5.00;4.00;;;;;-146.67;36.82;74246.38;5101814;27;61943;-78
2023/07/03 06:20:49;;;;;;;;;4.25;2.75;;;;;-146.67;36.28;74232.41;5103339;27;61876;-77
2023/07/03 06:23:15;;;;;;;;;4.00;4.00;;;;;-146.67;36.47;74206.44;5102256;27;61798;-77
2023/07/03 06:25:40;;;;;;;;;4.00;2.50;;;;;-146.67;35.96;74178.50;5101435;27;63697;-78
2023/07/03 06:28:06;;;;;;;;;4.75;3.75;;;;;-146.67;35.63;74168.50;5103572;27;61870;-78
2023/07/03 06:30:31;;;;;;;;;4.25;2.75;;;;;-146.67;35.98;74180.50;5103088;27;61947;-78
2023/07/03 06:32:57;;;;;;;;;4.25;4.25;;;;;-146.67;35.69;74188.47;5102064;27;62430;-78
2023/07/03 06:35:22;;;;;;;;;3.75;3.75;;;;;-146.67;35.39;74098.66;5101348;27;63527;-78
2023/07/03 06:37:48;;;;;;;;;4.00;2.75;;;;;-146.67;34.28;74000.81;5103784;27;61826;-79
2023/07/03 06:40:15;;;;;;;;;4.75;2.50;;;;;-146.67;34.29;74030.78;5103580;27;62334;-78
2023/07/03 06:42:42;;;;;;;;;4.75;3.50;;;;;-146.67;34.59;74072.69;5102117;27;61922;-79
2023/07/03 06:45:07;;;;;;;;;1.25;1.25;;;;;-146.67;35.36;74154.53;5101240;27;63729;-80
2023/07/03 06:47:33;;;;;;;;;5.00;2.25;;;;;-146.67;35.48;74176.50;5102310;27;62110;-80
2023/07/03 06:49:58;;;;;;;;;5.00;5.00;;;;;-146.67;35.66;74184.47;5103165;27;61882;-80
2023/07/03 06:52:24;;;;;;;;;3.00;3.00;;;;;-146.67;35.78;74198.47;5099101;27;61954;-81
2023/07/03 06:54:49;;;;;;;;;7.00;3.00;;;;;-146.67;35.82;74200.44;5082441;28;61850;-80
2023/07/03 06:57:15;;;;;;;;;4.00;4.00;;;;;-146.67;35.74;74192.47;5081542;28;61973;-80
2023/07/03 06:59:40;;;;;;;;;6.25;4.00;;;;;-146.67;35.38;74160.53;5082449;27;61980;-81
2023/07/03 07:02:06;;;;;;;;;3.25;2.00;;;;;-146.67;35.49;74192.47;5083112;28;61909;-81
2023/07/03 07:04:32;;;;;;;;;3.25;3.25;;;;;-146.67;35.70;74194.47;5081942;28;61820;-80
2023/07/03 07:06:58;;;;;;;;;4.00;3.00;;;;;-146.67;35.71;74184.47;5081392;28;61802;-80
2023/07/03 07:09:23;;;;;;;;;5.00;4.25;;;;;-146.67;35.35;74156.53;5085365;27;61876;-81
2023/07/03 07:11:49;;;;;;;;;1.50;1.50;;;;;-146.67;35.13;74156.53;5101793;27;61851;-80
2023/07/03 07:14:14;;;;;;;;;5.75;3.75;;;;;-146.67;35.20;74150.53;5102486;27;62065;-80
2023/07/03 07:16:40;;;;;;;;;3.75;2.75;;;;;-146.67;34.87;74128.59;5103048;27;61870;-81
2023/07/03 07:19:08;;;;;;;;;5.00;2.75;;;;;-146.67;34.87;74098.66;5102361;27;62310;-80
2023/07/03 07:21:37;;;;;;;;;3.50;3.50;;;;;-146.67;34.84;74122.59;5101936;27;61834;-81
2023/07/03 07:24:11;;;;;;;;;7.00;3.00;;;;;-146.67;35.30;74152.53;5101023;27;63880;-80
2023/07/03 07:26:37;;;;;;;;;5.75;4.00;;;;;-146.67;35.23;74148.56;5102800;27;61702;-80
2023/07/03 07:29:03;;;;;;;;;3.50;3.00;;;;;-146.67;35.27;74150.53;5102819;27;61814;-80
2023/07/03 07:31:29;;;;;;;;;6.25;4.25;;;;;-146.67;34.75;74074.69;5102027;27;62122;-80
2023/07/03 07:33:55;;;;;;;;;7.00;3.75;;;;;-146.67;35.08;74128.59;5101940;27;63423;-80
2023/07/03 07:36:23;;;;;;;;;4.00;4.00;;;;;-146.67;35.58;74168.50;5102941;27;61813;-81
2023/07/03 07:38:50;;;;;;;;;4.00;4.00;;;;;-146.67;35.80;74198.47;5101499;27;62092;-81
2023/07/03 07:41:15;;;;;;;;;7.00;2.75;;;;;-146.67;35.86;74200.44;5103197;27;61916;-80
2023/07/03 07:43:41;;;;;;;;;6.50;3.50;;;;;-146.67;36.06;74192.47;5102006;27;62690;-80
2023/07/03 07:46:06;;;;;;;;;3.50;3.00;;;;;-146.67;36.03;74216.44;5102803;27;61841;-80
2023/07/03 07:48:33;;;;;;;;;5.50;4.75;;;;;-146.67;36.05;74218.41;5102137;27;61888;-80
2023/07/03 07:50:58;;;;;;;;;3.50;3.50;;;;;-146.67;36.06;74228.41;5103089;27;62008;-80
2023/07/03 07:53:26;;;;;;;;;2.75;2.75;;;;;-146.67;36.23;74198.47;5100671;27;63322;-81
2023/07/03 07:55:51;;;;;;;;;3.00;3.00;;;;;-146.67;35.94;74172.50;5102537;27;61820;-80
2023/07/03 07:58:17;;;;;;;;;5.75;2.75;;;;;-146.67;35.76;74158.53;5101105;27;61778;-81
2023/07/03 08:00:44;;;;;;;;;4.25;4.25;;;;;-146.67;35.70;74142.56;5102567;27;62154;-81
2023/07/03 08:03:09;;;;;;;;;4.75;4.50;;;;;-146.67;35.47;74106.63;5101779;27;61988;-80
2023/07/03 08:05:36;;;;;;;;;4.75;4.50;;;;;-146.67;35.28;74094.66;5100977;27;61766;-80
2023/07/03 08:08:01;;;;;;;;;6.50;4.50;;;;;-146.67;35.11;74094.66;5101196;27;61680;-81
2023/07/03 08:10:27;;;;;;;;;4.00;3.00;;;;;-146.67;35.21;74072.69;5101024;27;61808;-80
2023/07/03 08:12:52;;;;;;;;;3.75;3.75;;;;;-146.67;34.76;74056.72;5101735;27;62668;-81
2023/07/03 08:15:18;;;;;;;;;5.00;3.75;;;;;-146.67;34.89;74060.72;5101047;27;61896;-81
2023/07/03 08:17:44;;;;;;;;;4.25;3.50;;;;;-146.67;35.01;74046.75;5101654;27;62148;-80
2023/07/03 08:20:11;;;;;;;;;4.00;2.50;;;;;-146.67;34.79;74014.81;5101210;27;61858;-81
2023/07/03 08:22:38;;;;;;;;;4.00;3.25;;;;;-146.67;34.50;73994.84;5103351;27;62213;-80
2023/07/03 08:25:05;;;;;;;;;3.75;3.00;;;;;-146.67;34.62;73984.84;5104340;27;61974;-80
2023/07/03 08:27:30;;;;;;;;;4.00;4.00;;;;;-146.67;34.48;73966.91;5104637;27;61911;-80
2023/07/03 08:29:56;;;;;;;;;5.00;3.00;;;;;-146.67;34.42;74014.81;5105696;27;61792;-80
2023/07/03 08:32:22;;;;;;;;;3.25;3.00;;;;;-146.67;34.79;74022.78;5104798;27;61785;-80
2023/07/03 08:34:48;;;;;;;;;5.00;4.00;;;;;-146.67;34.45;74060.72;5104299;27;62378;-81
2023/07/03 08:37:13;;;;;;;;;4.50;2.75;;;;;-146.67;34.61;74072.69;5105665;27;61848;-80
2023/07/03 08:39:39;;;;;;;;;8.50;5.25;;;;;-146.67;34.61;74068.69;5104386;27;62196;-80
2023/07/03 08:42:23;;;;;;;;;7.00;5.00;;;;;-146.67;34.78;74062.72;5104964;27;61836;-80
2023/07/03 08:44:49;;;;;;;;;4.50;4.50;;;;;-146.67;34.42;74074.69;5105650;27;61864;-80
2023/07/03 08:47:20;;;;;;;;;5.25;4.00;;;;;-146.67;34.35;74066.69;5103346;27;61918;-80
2023/07/03 08:49:47;;;;;;;;;7.00;5.00;;;;;-146.67;34.68;74088.66;5105501;27;62014;-81
2023/07/03 08:52:26;;;;;;;;;6.25;4.25;;;;;-146.67;34.65;74144.56;5105005;27;61752;-80
2023/07/03 08:54:53;;;;;;;;;6.75;5.00;;;;;-146.67;35.16;74162.53;5105365;27;61940;-80
2023/07/03 08:57:21;;;;;;;;;5.75;4.00;;;;;-146.67;35.13;74176.50;5105571;27;61770;-80
2023/07/03 08:59:47;;;;;;;;;7.50;4.50;;;;;-146.67;35.54;74216.44;5105155;27;61753;-81
2023/07/03 09:02:37;;;;;;;;;5.75;5.25;;;;;-146.67;35.46;74210.44;5103333;27;64020;-80
2023/07/03 09:05:41;;;;;;;;;4.50;4.50;;;;;-146.67;34.90;74136.56;5103692;27;61872;-80
2023/07/03 09:08:13;;;;;;;;;3.00;3.00;;;;;-146.67;34.72;74138.56;5105144;27;61944;-81
2023/07/03 09:10:47;;;;;;;;;7.75;3.50;;;;;-146.67;34.40;74116.59;5105390;27;61901;-81
2023/07/03 09:13:33;;;;;;;;;4.50;4.00;;;;;-146.67;34.33;74086.66;5102832;27;63770;-81
2023/07/03 09:16:13;;;;;;;;;5.50;4.50;;;;;-146.67;34.05;74046.75;5103189;27;61809;-81
2023/07/03 09:18:46;;;;;;;;;5.00;5.00;;;;;-146.67;33.35;74016.78;5104758;27;61960;-81
2023/07/03 09:21:11;;;;;;;;;3.50;3.50;;;;;-146.67;33.02;73954.91;5105049;27;62391;-81
2023/07/03 09:24:00;;;;;;;;;5.25;3.25;;;;;-146.67;32.46;73917.00;5104605;27;61809;-81
2023/07/03 09:26:38;;;;;;;;;4.75;4.00;;;;;-146.67;32.39;73877.06;5103476;27;61900;-81
2023/07/03 09:29:05;;;;;;;;;5.75;4.50;;;;;-146.67;32.45;73889.03;5104567;27;61957;-80
2023/07/03 09:31:31;;;;;;;;;3.50;2.00;;;;;-146.67;32.71;73881.06;5104978;27;61770;-81
2023/07/03 09:33:57;;;;;;;;;3.50;3.50;;;;;-146.67;32.71;73905.00;5103134;27;61924;-81
2023/07/03 09:36:30;;;;;;;;;3.25;3.25;;;;;-146.67;32.66;73917.00;5103394;27;61993;-81
2023/07/03 09:38:56;;;;;;;;;3.00;3.00;;;;;-146.67;32.57;73905.00;5103340;27;61946;-81
2023/07/03 09:41:30;;;;;;;;;7.75;3.00;;;;;-146.67;32.58;73907.00;5104768;27;61774;-81
2023/07/03 09:43:56;;;;;;;;;2.50;1.00;;;;;-146.67;33.01;73913.00;5103870;27;61858;-80
2023/07/03 09:46:22;;;;;;;;;5.75;3.50;;;;;-146.67;32.67;73885.06;5104279;27;61866;-81
2023/07/03 09:48:48;;;;;;;;;4.75;4.75;;;;;-146.67;32.67;73926.97;5104477;27;61918;-81
2023/07/03 09:51:19;;;;;;;;;6.00;5.00;;;;;-146.67;32.94;73968.88;5104401;27;61872;-81
2023/07/03 09:53:45;;;;;;;;;3.75;3.00;;;;;-146.67;32.89;73994.84;5102445;27;63542;-81
2023/07/03 09:56:14;;;;;;;;;3.25;3.00;;;;;-146.67;33.38;74042.75;5104330;27;61936;-81
2023/07/03 09:58:51;;;;;;;;;6.50;3.00;;;;;-146.67;33.40;74060.72;5104366;27;61844;-81
2023/07/03 10:01:38;;;;;;;;;3.00;3.00;;;;;-146.67;33.43;74010.81;5102836;27;61909;-81
2023/07/03 10:04:09;;;;;;;;;7.25;4.25;;;;;-146.67;33.23;74026.78;5103772;27;62884;-81
2023/07/03 10:06:36;;;;;;;;;4.50;2.50;;;;;-146.67;33.26;73972.88;5102984;27;61921;-81
2023/07/03 10:09:05;;;;;;;;;3.00;0.75;;;;;-146.67;32.82;73918.97;5103044;27;61914;-80
2023/07/03 10:12:09;;;;;;;;;5.00;1.50;;;;;-146.67;32.06;73905.00;5102750;27;62007;-81
2023/07/03 10:15:15;;;;;;;;;5.25;3.75;;;;;-146.67;32.49;73934.94;5099870;27;61863;-80
2023/07/03 10:17:51;;;;;;;;;2.50;2.50;;;;;-146.67;32.18;73988.84;5102593;27;62010;-81
2023/07/03 10:20:23;;;;;;;;;6.00;5.00;;;;;-146.67;32.47;74040.75;5103942;27;61695;-80
2023/07/03 10:22:51;;;;;;;;;6.25;2.50;;;;;-146.67;32.30;74052.72;5104378;27;62019;-80
2023/07/03 10:25:26;;;;;;;;;4.25;3.00;;;;;-146.67;32.10;74050.72;5103152;27;61832;-80
2023/07/03 10:27:57;;;;;;;;;4.00;2.75;;;;;-146.67;31.92;74048.75;5102316;27;61972;-81
2023/07/03 10:30:24;;;;;;;;;6.50;3.00;;;;;-146.67;31.67;74030.78;5103575;27;61734;-80
2023/07/03 10:32:53;;;;;;;;;1.75;1.75;;;;;-146.67;30.99;74016.78;5104188;27;61896;-81
2023/07/03 10:35:29;;;;;;;;;8.50;5.00;;;;;-146.67;30.77;74030.78;5101688;27;63793;-81
2023/07/03 10:38:05;;;;;;;;;3.00;3.00;;;;;-146.67;30.97;74044.75;5102401;27;61837;-81
2023/07/03 10:41:07;;;;;;;;;3.75;2.00;;;;;-146.67;30.60;74058.72;5103572;27;62055;-83
2023/07/03 10:43:42;;;;;;;;;2.33;2.33;;;;;-146.67;30.71;73996.84;5101403;27;61921;-83
2023/07/03 10:46:16;;;;;;;;;5.25;2.50;;;;;-146.67;29.75;73968.88;5102790;27;63157;-80
2023/07/03 10:48:43;;;;;;;;;3.00;2.00;;;;;-146.67;28.87;73980.88;5101605;27;61933;-84
2023/07/03 10:51:30;;;;;;;;;4.75;2.25;;;;;-146.67;27.97;74014.81;5103813;27;61979;-81
2023/07/03 10:54:20;;;;;;;;;1.25;1.00;;;;;-146.67;28.46;74034.75;5103780;27;62052;-81
2023/07/03 10:56:50;;;;;;;;;6.50;2.00;;;;;-146.67;28.15;74048.75;5100839;27;64452;-82
2023/07/03 10:59:32;;;;;;;;;3.00;1.00;;;;;-146.67;28.24;74040.75;5101837;27;61793;-81
2023/07/03 11:02:32;;;;;;;;;3.50;2.75;;;;;-146.67;28.29;74004.81;5102108;27;61866;-82
2023/07/03 11:05:10;;;;;;;;;1.50;1.50;;;;;-146.67;28.41;74024.78;5102205;27;61964;-82
2023/07/03 11:08:10;;;;;;;;;2.00;2.00;;;;;-146.67;28.36;74020.78;5101195;27;64957;-81
2023/07/03 11:10:47;;;;;;;;;1.00;1.00;;;;;-146.67;28.25;74024.78;5101081;27;61943;-81
2023/07/03 11:13:30;;;;;;;;;1.25;1.25;;;;;-146.67;27.99;74012.81;5101718;27;61865;-82
2023/07/03 11:16:15;;;;;;;;;1.00;1.00;;;;;-146.67;27.79;74048.75;5103387;27;61723;-81
2023/07/03 11:18:59;;;;;;;;;1.00;1.00;;;;;-146.67;28.07;74046.75;5102057;27;61884;-81
2023/07/03 11:21:36;;;;;;;;;3.00;2.00;;;;;-146.67;27.44;73994.84;5102988;27;61804;-81
2023/07/03 11:24:49;;;;;;;;;1.75;1.75;;;;;-146.67;27.84;73958.91;5103210;27;61786;-81